createdAt,value
2023-03-29T00:01:50.026Z,-0.02
2023-03-29T00:04:53.684Z,-0.12
2023-03-29T00:08:02.006Z,-0.13
2023-03-29T00:11:05.049Z,-0.10
2023-03-29T00:14:08.800Z,-0.10
2023-03-29T00:17:11.380Z,-0.15
2023-03-29T00:20:14.419Z,-0.16
2023-03-29T00:23:18.404Z,-0.29
2023-03-29T00:26:21.034Z,-0.23
2023-03-29T00:29:23.693Z,-0.15
2023-03-29T00:32:26.512Z,-0.17
2023-03-29T00:35:29.124Z,-0.08
2023-03-29T00:38:32.271Z,0.08
2023-03-29T00:41:34.832Z,0.07
2023-03-29T00:45:06.215Z,-0.04
2023-03-29T00:48:24.440Z,-0.06
2023-03-29T00:51:30.634Z,-0.10
2023-03-29T00:54:34.494Z,-0.14
2023-03-29T00:57:39.814Z,-0.20
2023-03-29T01:00:52.219Z,-0.14
2023-03-29T01:04:03.693Z,0.02
2023-03-29T01:07:35.982Z,0.05
2023-03-29T01:10:45.772Z,-0.01
2023-03-29T01:14:08.217Z,0.06
2023-03-29T01:17:11.054Z,0.07
2023-03-29T01:20:38.916Z,0.10
2023-03-29T01:23:48.248Z,0.05
2023-03-29T01:27:28.896Z,0.06
2023-03-29T01:31:08.498Z,0.11
2023-03-29T01:34:18.231Z,0.12
2023-03-29T01:37:36.366Z,0.18
2023-03-29T01:40:39.445Z,0.11
2023-03-29T01:43:51.527Z,0.06
2023-03-29T01:47:18.796Z,-0.03
2023-03-29T01:50:43.056Z,-0.06
2023-03-29T01:54:04.838Z,-0.19
2023-03-29T01:57:10.445Z,-0.29
2023-03-29T02:00:20.915Z,-0.43
2023-03-29T02:03:31.026Z,-0.55
2023-03-29T02:06:36.114Z,-0.78
2023-03-29T02:09:39.259Z,-0.93
2023-03-29T02:12:42.429Z,-1.15
2023-03-29T02:15:46.742Z,-1.23
2023-03-29T02:18:52.981Z,-1.34
2023-03-29T02:22:04.200Z,-1.43
2023-03-29T02:25:09.340Z,-1.26
2023-03-29T02:28:14.324Z,-1.43
2023-03-29T02:31:29.725Z,-1.27
2023-03-29T02:35:01.853Z,-1.07
2023-03-29T02:38:10.568Z,-1.02
2023-03-29T02:41:13.678Z,-1.05
2023-03-29T02:44:23.364Z,-1.13
2023-03-29T02:47:32.195Z,-1.00
2023-03-29T02:50:38.239Z,-0.97
2023-03-29T02:53:52.044Z,-1.08
2023-03-29T02:57:06.590Z,-1.13
2023-03-29T03:00:10.803Z,-1.18
2023-03-29T03:03:15.698Z,-1.31
2023-03-29T03:06:21.425Z,-1.39
2023-03-29T03:09:24.518Z,-1.54
2023-03-29T03:12:28.488Z,-1.61
2023-03-29T03:15:32.994Z,-1.62
2023-03-29T03:18:35.491Z,-1.69
2023-03-29T03:21:38.420Z,-1.67
2023-03-29T03:24:41.052Z,-1.60
2023-03-29T03:27:43.854Z,-1.60
2023-03-29T03:30:46.601Z,-1.56
2023-03-29T03:34:08.751Z,-1.53
2023-03-29T03:37:25.823Z,-1.56
2023-03-29T03:40:28.525Z,-1.53
2023-03-29T03:43:31.371Z,-1.74
2023-03-29T03:46:33.881Z,-1.91
2023-03-29T03:49:37.552Z,-2.06
2023-03-29T03:52:40.376Z,-2.13
2023-03-29T03:55:48.780Z,-2.18
2023-03-29T03:58:57.111Z,-2.24
2023-03-29T04:02:00.730Z,-2.28
2023-03-29T04:05:03.558Z,-2.33
2023-03-29T04:08:12.603Z,-2.30
2023-03-29T04:11:33.746Z,-2.36
2023-03-29T04:14:36.978Z,-2.36
2023-03-29T04:17:42.054Z,-2.46
2023-03-29T04:20:59.160Z,-2.55
2023-03-29T04:24:04.376Z,-2.53
2023-03-29T04:27:09.714Z,-2.56
2023-03-29T04:30:13.142Z,-2.42
2023-03-29T04:33:41.660Z,-2.34
2023-03-29T04:36:45.098Z,-2.26
2023-03-29T04:39:54.656Z,-2.26
2023-03-29T04:43:00.150Z,-2.25
2023-03-29T04:46:03.399Z,-2.05
2023-03-29T04:49:35.162Z,-2.07
2023-03-29T04:52:38.844Z,-1.97
2023-03-29T04:55:42.253Z,-1.89
2023-03-29T04:58:49.666Z,-1.85
2023-03-29T05:01:52.560Z,-1.73
2023-03-29T05:04:55.204Z,-1.56
2023-03-29T05:07:57.870Z,-1.44
2023-03-29T05:11:09.107Z,-1.29
2023-03-29T05:14:11.819Z,-1.13
2023-03-29T05:17:14.431Z,-0.97
2023-03-29T05:20:17.711Z,-0.83
2023-03-29T05:23:24.184Z,-0.62
2023-03-29T05:26:45.182Z,-0.50
2023-03-29T05:29:49.118Z,-0.41
2023-03-29T05:33:19.742Z,-0.22
2023-03-29T05:36:23.516Z,-0.13
2023-03-29T05:39:27.291Z,0.10
2023-03-29T05:42:34.144Z,0.27
2023-03-29T05:45:43.517Z,0.49
2023-03-29T05:48:46.576Z,0.65
2023-03-29T05:51:50.663Z,0.75
2023-03-29T05:54:53.517Z,0.95
2023-03-29T05:57:57.319Z,1.08
2023-03-29T06:01:12.015Z,1.21
2023-03-29T06:04:28.384Z,1.34
2023-03-29T06:07:52.103Z,1.42
2023-03-29T06:11:11.513Z,1.46
2023-03-29T06:14:37.416Z,1.58
2023-03-29T06:18:06.603Z,1.65
2023-03-29T06:21:11.112Z,1.76
2023-03-29T06:24:14.153Z,1.77
2023-03-29T06:27:23.590Z,1.91
2023-03-29T06:30:26.867Z,2.02
2023-03-29T06:33:34.215Z,2.08
2023-03-29T06:36:57.742Z,2.15
2023-03-29T06:40:01.399Z,2.31
2023-03-29T06:43:14.224Z,2.42
2023-03-29T06:46:17.106Z,2.48
2023-03-29T06:49:31.861Z,2.45
2023-03-29T06:52:41.391Z,2.57
2023-03-29T06:55:44.419Z,2.68
2023-03-29T06:59:06.968Z,2.85
2023-03-29T07:02:17.862Z,2.96
2023-03-29T07:05:44.987Z,3.23
2023-03-29T07:08:52.616Z,3.28
2023-03-29T07:12:31.107Z,3.46
2023-03-29T07:15:37.050Z,3.56
2023-03-29T07:18:52.215Z,3.84
2023-03-29T07:22:17.676Z,4.15
2023-03-29T07:25:25.910Z,4.15
2023-03-29T07:28:28.612Z,4.05
2023-03-29T07:31:33.062Z,4.29
2023-03-29T07:34:56.042Z,4.35
2023-03-29T07:38:08.578Z,4.36
2023-03-29T07:41:13.866Z,4.45
2023-03-29T07:44:24.387Z,4.71
2023-03-29T07:47:27.135Z,4.78
2023-03-29T07:50:32.683Z,4.85
2023-03-29T07:53:39.992Z,4.83
2023-03-29T07:56:51.705Z,4.94
2023-03-29T08:00:26.747Z,4.76
2023-03-29T08:03:49.545Z,5.06
2023-03-29T08:06:52.993Z,5.04
2023-03-29T08:09:57.474Z,5.23
2023-03-29T08:13:13.689Z,5.28
2023-03-29T08:16:42.498Z,5.19
2023-03-29T08:19:51.250Z,5.16
2023-03-29T08:22:58.036Z,5.36
2023-03-29T08:26:24.367Z,5.42
2023-03-29T08:29:27.608Z,5.49
2023-03-29T08:32:31.801Z,5.59
2023-03-29T08:35:34.987Z,5.74
2023-03-29T08:38:58.026Z,5.69
2023-03-29T08:42:10.084Z,5.73
2023-03-29T08:45:35.566Z,5.97
2023-03-29T08:48:44.320Z,6.35
2023-03-29T08:52:17.347Z,6.49
2023-03-29T08:55:41.415Z,6.62
2023-03-29T08:59:02.751Z,6.76
2023-03-29T09:02:18.112Z,6.73
2023-03-29T09:05:29.437Z,6.62
2023-03-29T09:08:49.291Z,6.74
2023-03-29T09:12:01.897Z,6.71
2023-03-29T09:15:16.556Z,6.54
2023-03-29T09:19:00.124Z,6.57
2023-03-29T09:22:24.437Z,6.78
2023-03-29T09:25:52.672Z,6.66
2023-03-29T09:29:19.871Z,6.88
2023-03-29T09:32:35.374Z,6.94
2023-03-29T09:35:47.129Z,6.88
2023-03-29T09:38:54.376Z,7.08
2023-03-29T09:42:05.520Z,7.46
2023-03-29T09:45:10.122Z,7.45
2023-03-29T09:48:21.094Z,7.49
2023-03-29T09:51:33.172Z,7.43
2023-03-29T09:54:36.542Z,7.51
2023-03-29T09:58:11.698Z,7.46
2023-03-29T10:01:19.179Z,7.63
2023-03-29T10:04:26.070Z,7.86
2023-03-29T10:07:46.383Z,7.49
2023-03-29T10:10:50.586Z,7.40
2023-03-29T10:13:55.122Z,7.75
2023-03-29T10:16:58.499Z,7.96
2023-03-29T10:20:04.511Z,7.81
2023-03-29T10:23:09.153Z,7.80
2023-03-29T10:26:23.037Z,7.75
2023-03-29T10:29:34.713Z,7.89
2023-03-29T10:32:38.576Z,7.62
2023-03-29T10:35:42.134Z,7.71
2023-03-29T10:38:45.116Z,8.00
2023-03-29T10:41:52.805Z,7.96
2023-03-29T10:45:00.356Z,8.22
2023-03-29T10:48:05.250Z,8.40
2023-03-29T10:51:07.897Z,8.30
2023-03-29T10:54:14.731Z,8.71
2023-03-29T10:57:37.625Z,8.76
2023-03-29T11:00:49.957Z,9.02
2023-03-29T11:03:59.053Z,8.74
2023-03-29T11:07:26.421Z,8.61
2023-03-29T11:10:31.919Z,8.85
2023-03-29T11:13:58.077Z,9.23
2023-03-29T11:17:48.370Z,9.61
2023-03-29T11:20:59.037Z,10.10
2023-03-29T11:24:39.147Z,10.02
2023-03-29T11:28:09.675Z,10.37
2023-03-29T11:31:30.603Z,10.38
2023-03-29T11:35:06.588Z,10.35
2023-03-29T11:38:18.262Z,9.80
2023-03-29T11:41:38.147Z,10.20
2023-03-29T11:44:44.086Z,10.11
2023-03-29T11:47:47.718Z,9.74
2023-03-29T11:51:04.766Z,10.06
2023-03-29T11:54:34.756Z,10.23
2023-03-29T11:57:44.140Z,9.90
2023-03-29T12:00:56.420Z,10.01
2023-03-29T12:04:23.098Z,10.28
2023-03-29T12:07:35.911Z,10.24
2023-03-29T12:10:49.887Z,10.25
2023-03-29T12:14:05.521Z,10.39
2023-03-29T12:17:14.663Z,10.41
2023-03-29T12:20:28.353Z,10.74
2023-03-29T12:23:34.294Z,11.03
2023-03-29T12:26:47.239Z,11.54
2023-03-29T12:30:14.664Z,11.14
2023-03-29T12:33:24.816Z,11.47
2023-03-29T12:36:35.873Z,11.18
2023-03-29T12:40:05.449Z,11.28
2023-03-29T12:43:39.125Z,11.00
2023-03-29T12:47:00.622Z,10.54
2023-03-29T12:50:04.751Z,10.23
2023-03-29T12:53:49.086Z,11.21
2023-03-29T12:56:51.841Z,11.86
2023-03-29T12:59:55.101Z,12.85
2023-03-29T13:03:14.253Z,12.68
2023-03-29T13:06:50.517Z,11.69
2023-03-29T13:09:58.850Z,11.67
2023-03-29T13:13:12.554Z,11.31
2023-03-29T13:16:18.535Z,11.83
2023-03-29T13:19:46.344Z,12.22
2023-03-29T13:23:09.604Z,12.41
2023-03-29T13:26:23.495Z,12.02
2023-03-29T13:29:47.905Z,13.12
2023-03-29T13:32:56.038Z,13.39
2023-03-29T13:36:23.202Z,13.97
2023-03-29T13:39:32.312Z,14.15
2023-03-29T13:42:35.491Z,13.44
2023-03-29T13:45:39.007Z,12.63
2023-03-29T13:48:41.473Z,12.24
2023-03-29T13:51:53.227Z,12.36
2023-03-29T13:55:21.694Z,12.45
2023-03-29T13:58:37.992Z,12.08
2023-03-29T14:01:48.261Z,11.99
2023-03-29T14:04:52.502Z,12.31
2023-03-29T14:07:55.870Z,13.44
2023-03-29T14:11:02.761Z,14.38
2023-03-29T14:14:08.427Z,14.62
2023-03-29T14:17:19.481Z,15.27
2023-03-29T14:20:22.546Z,14.95
2023-03-29T14:23:28.170Z,14.36
2023-03-29T14:26:33.919Z,14.28
2023-03-29T14:29:36.644Z,13.49
2023-03-29T14:32:39.891Z,12.82
2023-03-29T14:35:42.655Z,12.31
2023-03-29T14:39:01.810Z,12.17
2023-03-29T14:42:14.420Z,11.92
2023-03-29T14:45:23.302Z,11.56
2023-03-29T14:48:26.401Z,11.52
2023-03-29T14:51:31.222Z,11.69
2023-03-29T14:54:36.217Z,11.53
2023-03-29T14:57:39.474Z,11.47
2023-03-29T15:00:45.061Z,11.49
2023-03-29T15:03:54.956Z,11.48
2023-03-29T15:06:58.622Z,11.51
2023-03-29T15:10:05.248Z,11.45
2023-03-29T15:13:08.845Z,11.14
2023-03-29T15:16:13.922Z,11.07
2023-03-29T15:19:25.537Z,10.85
2023-03-29T15:22:33.335Z,10.77
2023-03-29T15:25:38.384Z,10.56
2023-03-29T15:29:03.211Z,10.61
2023-03-29T15:32:05.760Z,10.51
2023-03-29T15:35:24.815Z,10.62
2023-03-29T15:38:40.453Z,10.75
2023-03-29T15:41:52.158Z,10.95
2023-03-29T15:44:56.518Z,11.05
2023-03-29T15:48:02.055Z,10.99
2023-03-29T15:51:06.782Z,10.87
2023-03-29T15:54:09.718Z,11.02
2023-03-29T15:57:15.046Z,10.86
2023-03-29T16:00:19.889Z,10.89
2023-03-29T16:03:23.988Z,10.63
2023-03-29T16:06:26.688Z,10.62
2023-03-29T16:09:29.549Z,10.51
2023-03-29T16:12:32.082Z,10.71
2023-03-29T16:15:36.825Z,10.58
2023-03-29T16:18:39.600Z,10.55
2023-03-29T16:21:43.202Z,10.45
2023-03-29T16:24:45.730Z,10.35
2023-03-29T16:27:48.675Z,10.27
2023-03-29T16:30:51.450Z,10.13
2023-03-29T16:33:54.081Z,10.11
2023-03-29T16:36:56.736Z,9.97
2023-03-29T16:39:59.784Z,9.87
2023-03-29T16:43:14.955Z,9.74
2023-03-29T16:46:17.451Z,9.70
2023-03-29T16:49:20.002Z,9.62
2023-03-29T16:52:23.258Z,9.53
2023-03-29T16:55:25.781Z,9.43
2023-03-29T16:58:28.715Z,9.37
2023-03-29T17:01:31.582Z,9.31
2023-03-29T17:04:34.226Z,9.30
2023-03-29T17:07:36.882Z,9.21
2023-03-29T17:10:43.100Z,9.20
2023-03-29T17:13:45.903Z,9.14
2023-03-29T17:16:48.417Z,9.13
2023-03-29T17:19:51.261Z,9.08
2023-03-29T17:22:56.048Z,9.00
2023-03-29T17:25:58.872Z,8.93
2023-03-29T17:29:01.653Z,8.85
2023-03-29T17:32:04.784Z,8.79
2023-03-29T17:35:09.093Z,8.66
2023-03-29T17:38:12.181Z,8.66
2023-03-29T17:41:16.148Z,8.62
2023-03-29T17:44:19.512Z,8.64
2023-03-29T17:47:22.112Z,8.56
2023-03-29T17:50:24.986Z,8.50
2023-03-29T17:53:27.770Z,8.46
2023-03-29T17:56:30.603Z,8.45
2023-03-29T17:59:33.328Z,8.44
2023-03-29T18:02:36.831Z,8.44
2023-03-29T18:05:39.781Z,8.35
2023-03-29T18:08:42.670Z,8.32
2023-03-29T18:11:45.432Z,8.32
2023-03-29T18:14:48.416Z,8.29
2023-03-29T18:17:51.246Z,8.22
2023-03-29T18:20:54.079Z,8.22
2023-03-29T18:23:57.384Z,8.20
2023-03-29T18:26:59.983Z,8.21
2023-03-29T18:30:03.217Z,8.14
2023-03-29T18:33:06.381Z,8.20
2023-03-29T18:36:13.340Z,8.17
2023-03-29T18:39:16.564Z,8.20
2023-03-29T18:42:21.901Z,8.22
2023-03-29T18:45:24.461Z,8.20
2023-03-29T18:48:28.935Z,8.18
2023-03-29T18:51:32.965Z,8.19
2023-03-29T18:54:35.833Z,8.17
2023-03-29T18:57:38.341Z,8.15
2023-03-29T19:00:44.633Z,8.18
2023-03-29T19:03:48.184Z,8.16
2023-03-29T19:06:52.166Z,8.17
2023-03-29T19:09:54.894Z,8.17
2023-03-29T19:12:57.784Z,8.19
2023-03-29T19:16:01.167Z,8.17
2023-03-29T19:19:06.721Z,8.16
2023-03-29T19:22:09.857Z,8.18
2023-03-29T19:25:12.346Z,8.15
2023-03-29T19:28:16.385Z,8.14
2023-03-29T19:31:19.576Z,8.13
2023-03-29T19:34:26.971Z,8.10
2023-03-29T19:37:29.929Z,8.09
2023-03-29T19:40:32.816Z,8.06
2023-03-29T19:43:35.789Z,8.05
2023-03-29T19:46:38.636Z,8.02
2023-03-29T19:49:41.522Z,8.00
2023-03-29T19:52:44.153Z,7.99
2023-03-29T19:55:46.874Z,7.99
2023-03-29T19:58:52.750Z,7.97
2023-03-29T20:01:57.131Z,7.97
2023-03-29T20:04:59.870Z,7.94
2023-03-29T20:08:02.465Z,7.92
2023-03-29T20:11:10.424Z,7.90
2023-03-29T20:14:14.062Z,7.90
2023-03-29T20:17:16.591Z,7.89
2023-03-29T20:20:23.094Z,7.89
2023-03-29T20:23:27.392Z,7.91
2023-03-29T20:26:30.721Z,7.90
2023-03-29T20:29:34.357Z,7.89
2023-03-29T20:32:37.225Z,7.87
2023-03-29T20:35:39.874Z,7.85
2023-03-29T20:38:42.370Z,7.89
2023-03-29T20:41:47.776Z,7.90
2023-03-29T20:44:51.363Z,7.83
2023-03-29T20:47:57.916Z,7.83
2023-03-29T20:51:03.109Z,7.78
2023-03-29T20:54:06.216Z,7.85
2023-03-29T20:57:11.734Z,7.80
2023-03-29T21:00:14.605Z,7.81
2023-03-29T21:03:17.984Z,7.79
2023-03-29T21:06:21.182Z,7.74
2023-03-29T21:09:25.513Z,7.75
2023-03-29T21:12:28.153Z,7.77
2023-03-29T21:15:35.285Z,7.64
2023-03-29T21:18:39.688Z,7.67
2023-03-29T21:21:43.976Z,7.69
2023-03-29T21:24:46.500Z,7.69
2023-03-29T21:27:49.206Z,7.73
2023-03-29T21:30:51.661Z,7.71
2023-03-29T21:33:56.304Z,7.76
2023-03-29T21:36:58.799Z,7.71
2023-03-29T21:40:05.629Z,7.65
2023-03-29T21:43:08.180Z,7.64
2023-03-29T21:46:11.782Z,7.66
2023-03-29T21:49:14.434Z,7.63
2023-03-29T21:52:17.906Z,7.55
2023-03-29T21:55:20.700Z,7.49
2023-03-29T21:58:23.325Z,7.40
2023-03-29T22:01:26.605Z,7.40
2023-03-29T22:04:37.115Z,7.34
2023-03-29T22:07:40.322Z,7.29
2023-03-29T22:10:42.931Z,7.31
2023-03-29T22:13:47.022Z,7.32
2023-03-29T22:16:50.315Z,7.23
2023-03-29T22:19:53.409Z,7.21
2023-03-29T22:22:56.129Z,7.16
2023-03-29T22:25:59.014Z,7.00
2023-03-29T22:29:01.789Z,6.90
2023-03-29T22:32:05.856Z,6.83
2023-03-29T22:35:09.422Z,6.86
2023-03-29T22:38:11.881Z,6.83
2023-03-29T22:41:18.730Z,6.78
2023-03-29T22:44:21.668Z,6.79
2023-03-29T22:47:25.063Z,6.85
2023-03-29T22:50:27.826Z,6.85
2023-03-29T22:53:30.488Z,6.84
2023-03-29T22:56:33.560Z,6.83
2023-03-29T22:59:36.172Z,6.82
2023-03-29T23:02:39.130Z,6.83
2023-03-29T23:05:41.653Z,6.79
2023-03-29T23:08:44.408Z,6.78
2023-03-29T23:11:46.923Z,6.77
2023-03-29T23:14:52.946Z,6.69
2023-03-29T23:17:55.516Z,6.69
2023-03-29T23:20:59.082Z,6.66
2023-03-29T23:24:02.021Z,6.63
2023-03-29T23:27:05.597Z,6.57
2023-03-29T23:30:09.020Z,6.59
2023-03-29T23:33:11.801Z,6.62
2023-03-29T23:36:16.739Z,6.66
2023-03-29T23:39:19.328Z,6.68
2023-03-29T23:42:22.678Z,6.66
2023-03-29T23:45:29.226Z,6.69
2023-03-29T23:48:32.697Z,6.70
2023-03-29T23:51:36.784Z,6.73
2023-03-29T23:54:39.606Z,6.73
2023-03-29T23:57:42.324Z,6.74
